KLAW

Lawton-Fort Sill Regional Airport

Lawton, Oklahoma, USA
METAR KLAW 211253Z AUTO 01019G25KT 10SM FEW018 OVC028 M04/M07 A3038 RMK AO2 PK WND 02027/1208 SLP298 T10391067
Observed Flight Rules
Feb-21 @ 12:53 UTC (13 minutes ago) Marginal Visual Flight Rules
Wind Visibility Clouds
10° at 19 knots
 Gusting to 25 knots
10 miles
  • Few at 1,800' AGL
  • Overcast at 2,800' AGL
Temperatures Readings
Current -4°C / 25°F
Dewpoint -7°C / 19°F
Humidity 80%
Altimeter 30.38" Hg
Pressure 1029.8 hPa
Elevation 337
METAR KLAW 211253Z AUTO 01019G25KT 10SM FEW018 OVC028 M04/M07 A3038 RMK AO2 PK WND 02027/1208 SLP298 T10391067
Observed Flight Rules
Feb-21 @ 12:53 UTC
(13 minutes ago)
MVFR
Wind Visibility
10° at 19 knots
 Gusting to 25 knots
10 miles
Clouds
  • Few at 1,800' AGL
  • Overcast at 2,800' AGL
Temperature Dewpoint
-4°C / 25°F -7°C / 19°F
Humidity Altimeter Pressure
80% 30.38" Hg 1029.8 hPa